DLH5JY EDDM-EGKK
Flight info
| Callsign | DLH5JY |
|---|---|
| Flight time | N/A |
| Altitude | 40000 |
| Route | OLASO2S OLASO Z714 PELOG UM164 LUPEN/N0489F410 DCT POGOL DCT LUVAL DCT ROTSI/N0482F400 DCT KOTUN DCT NINAL DCT KESAX DCT KUNAV |
| Aircraft | A388/J-SADE2E3FGHIJ3J4J5M1RWXY/LB1D1 |
Departure
| Time | 2026-05-07 14:04 |
|---|---|
| Airport | Munich Airport (EDDM) |
Arrival
| Time | N/A |
|---|---|
| Airport | London Gatwick Airport (EGKK) |
| Time | Latitude | Longitude | Altitude | Speed | Heading |
|---|---|---|---|---|---|
| 2026-05-07 13:33 | 48.35405 | 11.79339 | 1480 ft | 0 kts | 261° |
| 2026-05-07 13:52 | 48.35406 | 11.79352 | 1480 ft | 2 kts | 261° |
| 2026-05-07 13:52 | 48.35410 | 11.79385 | 1474 ft | 4 kts | 259° |
| 2026-05-07 13:52 | 48.35419 | 11.79429 | 1466 ft | 4 kts | 244° |
| 2026-05-07 13:53 | 48.35441 | 11.79458 | 1469 ft | 4 kts | 202° |
| 2026-05-07 13:53 | 48.35460 | 11.79460 | 1466 ft | 0 kts | 176° |
| 2026-05-07 13:56 | 48.35451 | 11.79461 | 1470 ft | 2 kts | 173° |
| 2026-05-07 13:57 | 48.35381 | 11.79507 | 1469 ft | 14 kts | 150° |
| 2026-05-07 13:57 | 48.35290 | 11.79555 | 1476 ft | 15 kts | 166° |
| 2026-05-07 13:57 | 48.35186 | 11.79613 | 1468 ft | 18 kts | 157° |
| 2026-05-07 13:57 | 48.35059 | 11.79657 | 1477 ft | 20 kts | 171° |
| 2026-05-07 13:58 | 48.34989 | 11.79673 | 1472 ft | 0 kts | 171° |
| 2026-05-07 13:58 | 48.34982 | 11.79674 | 1472 ft | 3 kts | 171° |
| 2026-05-07 13:59 | 48.34908 | 11.79691 | 1478 ft | 26 kts | 172° |
| 2026-05-07 13:59 | 48.34843 | 11.79710 | 1475 ft | 1 kts | 163° |
| 2026-05-07 13:59 | 48.34819 | 11.79753 | 1478 ft | 9 kts | 103° |
| 2026-05-07 13:59 | 48.34815 | 11.79868 | 1485 ft | 13 kts | 87° |
| 2026-05-07 14:00 | 48.34822 | 11.80017 | 1484 ft | 16 kts | 85° |
| 2026-05-07 14:00 | 48.34835 | 11.80200 | 1476 ft | 19 kts | 83° |
| 2026-05-07 14:00 | 48.34849 | 11.80406 | 1475 ft | 20 kts | 92° |
| 2026-05-07 14:00 | 48.34772 | 11.80558 | 1473 ft | 19 kts | 168° |
| 2026-05-07 14:01 | 48.34644 | 11.80563 | 1484 ft | 11 kts | 189° |
| 2026-05-07 14:01 | 48.34599 | 11.80536 | 1477 ft | 0 kts | 215° |
| 2026-05-07 14:02 | 48.34594 | 11.80530 | 1464 ft | 5 kts | 215° |
| 2026-05-07 14:02 | 48.34496 | 11.80421 | 1471 ft | 19 kts | 233° |
| 2026-05-07 14:02 | 48.34473 | 11.80275 | 1487 ft | 12 kts | 265° |
| 2026-05-07 14:02 | 48.34462 | 11.80191 | 1478 ft | 0 kts | 258° |
| 2026-05-07 14:03 | 48.34462 | 11.80190 | 1478 ft | 0 kts | 258° |
| 2026-05-07 14:03 | 48.34439 | 11.79896 | 1475 ft | 69 kts | 267° |
| 2026-05-07 14:03 | 48.34382 | 11.78814 | 1488 ft | 135 kts | 269° |
| 2026-05-07 14:03 | 48.34264 | 11.77209 | 1482 ft | 171 kts | 267° |
| 2026-05-07 14:04 | 48.34163 | 11.75364 | 1833 ft | 172 kts | 269° |
| 2026-05-07 14:04 | 48.34069 | 11.73684 | 2652 ft | 156 kts | 266° |
| 2026-05-07 14:04 | 48.33967 | 11.72053 | 3201 ft | 161 kts | 266° |
| 2026-05-07 14:04 | 48.33820 | 11.70279 | 3579 ft | 179 kts | 263° |
| 2026-05-07 14:05 | 48.33638 | 11.68346 | 3850 ft | 199 kts | 263° |
| 2026-05-07 14:05 | 48.33431 | 11.66158 | 4331 ft | 219 kts | 264° |
| 2026-05-07 14:05 | 48.33224 | 11.63881 | 5128 ft | 228 kts | 264° |
| 2026-05-07 14:05 | 48.33035 | 11.61399 | 5677 ft | 248 kts | 265° |
| 2026-05-07 14:06 | 48.32851 | 11.58766 | 6484 ft | 255 kts | 264° |
| 2026-05-07 14:06 | 48.32664 | 11.56093 | 6922 ft | 261 kts | 264° |
| 2026-05-07 14:06 | 48.32468 | 11.53372 | 7013 ft | 261 kts | 264° |
| 2026-05-07 14:06 | 48.32271 | 11.50665 | 7020 ft | 260 kts | 264° |
| 2026-05-07 14:07 | 48.32073 | 11.47995 | 7016 ft | 260 kts | 264° |
| 2026-05-07 14:07 | 48.31871 | 11.45280 | 7014 ft | 261 kts | 264° |
| 2026-05-07 14:07 | 48.31669 | 11.42573 | 7216 ft | 263 kts | 264° |
| 2026-05-07 14:07 | 48.31464 | 11.39816 | 7884 ft | 265 kts | 264° |
| 2026-05-07 14:08 | 48.31260 | 11.37095 | 8903 ft | 265 kts | 264° |
| 2026-05-07 14:08 | 48.31049 | 11.34297 | 9741 ft | 270 kts | 263° |
| 2026-05-07 14:08 | 48.30839 | 11.31510 | 10612 ft | 272 kts | 263° |
| 2026-05-07 14:08 | 48.30624 | 11.28666 | 11406 ft | 275 kts | 263° |
| 2026-05-07 14:09 | 48.30383 | 11.25718 | 11842 ft | 292 kts | 262° |
| 2026-05-07 14:09 | 48.30100 | 11.22574 | 12050 ft | 314 kts | 262° |
| 2026-05-07 14:09 | 48.29799 | 11.19278 | 12479 ft | 326 kts | 262° |
| 2026-05-07 14:09 | 48.29489 | 11.15871 | 13226 ft | 330 kts | 262° |
| 2026-05-07 14:10 | 48.29178 | 11.12420 | 13946 ft | 334 kts | 262° |
| 2026-05-07 14:10 | 48.28870 | 11.08984 | 14592 ft | 337 kts | 262° |
| 2026-05-07 14:10 | 48.28553 | 11.05459 | 15227 ft | 341 kts | 262° |
| 2026-05-07 14:10 | 48.28233 | 11.01918 | 15874 ft | 345 kts | 262° |
| 2026-05-07 14:11 | 48.28063 | 11.00043 | 16204 ft | 346 kts | 262° |